createdAt,value
2022-10-16T00:01:44.347Z,3.85
2022-10-16T00:04:11.708Z,3.47
2022-10-16T00:06:41.520Z,3.95
2022-10-16T00:09:11.331Z,3.40
2022-10-16T00:11:41.037Z,3.72
2022-10-16T00:14:12.038Z,3.40
2022-10-16T00:16:39.855Z,3.55
2022-10-16T00:19:07.272Z,3.22
2022-10-16T00:21:35.202Z,3.80
2022-10-16T00:24:05.969Z,4.97
2022-10-16T00:26:37.843Z,4.30
2022-10-16T00:29:05.919Z,4.63
2022-10-16T00:31:36.294Z,4.10
2022-10-16T00:34:03.982Z,4.05
2022-10-16T00:36:31.829Z,4.53
2022-10-16T00:41:36.236Z,4.53
2022-10-16T00:44:24.902Z,4.60
2022-10-16T00:46:52.644Z,4.45
2022-10-16T00:49:24.650Z,5.50
2022-10-16T00:51:54.980Z,5.03
2022-10-16T00:54:25.724Z,5.57
2022-10-16T00:56:54.691Z,6.10
2022-10-16T00:59:29.751Z,6.80
2022-10-16T01:01:58.486Z,16.02
2022-10-16T01:04:27.740Z,8.07
2022-10-16T01:07:02.587Z,7.13
2022-10-16T01:09:45.567Z,4.63
2022-10-16T01:12:20.755Z,4.72
2022-10-16T01:15:10.162Z,4.80
2022-10-16T01:17:48.871Z,4.60
2022-10-16T01:20:23.611Z,4.80
2022-10-16T01:22:58.487Z,4.55
2022-10-16T01:25:59.784Z,5.25
2022-10-16T01:28:35.391Z,5.13
2022-10-16T01:31:03.676Z,6.47
2022-10-16T01:33:47.642Z,12.55
2022-10-16T01:36:19.581Z,6.03
2022-10-16T01:38:50.814Z,3.70
2022-10-16T01:41:25.929Z,4.45
2022-10-16T01:44:33.715Z,6.20
2022-10-16T01:47:01.823Z,4.20
2022-10-16T01:49:33.376Z,4.82
2022-10-16T01:54:33.836Z,7.18
2022-10-16T01:57:02.551Z,7.03
2022-10-16T01:59:34.185Z,6.28
2022-10-16T02:04:36.699Z,15.10
2022-10-16T02:07:04.393Z,8.55
2022-10-16T02:09:34.599Z,8.07
2022-10-16T02:12:09.286Z,13.88
2022-10-16T02:14:40.288Z,17.67
2022-10-16T02:17:19.023Z,14.02
2022-10-16T02:19:48.818Z,25.13
2022-10-16T02:22:24.067Z,8.13
2022-10-16T02:25:29.207Z,23.58
2022-10-16T02:27:59.361Z,8.70
2022-10-16T02:30:30.644Z,12.30
2022-10-16T02:33:01.437Z,11.32
2022-10-16T02:35:29.472Z,10.33
2022-10-16T02:37:58.268Z,8.45
2022-10-16T02:40:27.241Z,3.10
2022-10-16T02:42:58.617Z,17.55
2022-10-16T02:45:28.392Z,14.68
2022-10-16T02:47:58.060Z,7.72
2022-10-16T02:50:26.155Z,15.00
2022-10-16T02:52:53.542Z,8.07
2022-10-16T02:55:23.256Z,9.20
2022-10-16T02:57:50.506Z,16.42
2022-10-16T03:00:18.829Z,12.85
2022-10-16T03:02:48.473Z,3.40
2022-10-16T03:05:16.302Z,6.55
2022-10-16T03:07:43.635Z,6.45
2022-10-16T03:10:10.893Z,15.15
2022-10-16T03:12:38.251Z,8.35
2022-10-16T03:15:06.145Z,7.43
2022-10-16T03:17:33.996Z,7.70
2022-10-16T03:20:01.231Z,9.82
2022-10-16T03:22:30.970Z,7.82
2022-10-16T03:25:00.579Z,7.43
2022-10-16T03:27:30.382Z,15.15
2022-10-16T03:29:57.657Z,16.40
2022-10-16T03:32:26.273Z,14.32
2022-10-16T03:34:58.281Z,13.30
2022-10-16T03:37:26.103Z,19.98
2022-10-16T03:39:54.062Z,8.52
2022-10-16T03:42:23.886Z,18.15
2022-10-16T03:44:51.164Z,8.63
2022-10-16T03:47:22.849Z,4.53
2022-10-16T03:49:51.026Z,11.27
2022-10-16T03:52:20.799Z,14.95
2022-10-16T03:54:48.146Z,5.80
2022-10-16T03:57:18.263Z,9.82
2022-10-16T03:59:45.744Z,14.00
2022-10-16T04:02:13.168Z,14.68
2022-10-16T04:04:42.863Z,20.27
2022-10-16T04:07:10.211Z,13.18
2022-10-16T04:09:37.707Z,8.70
2022-10-16T04:12:07.349Z,9.98
2022-10-16T04:14:35.145Z,10.15
2022-10-16T04:17:02.421Z,7.95
2022-10-16T04:19:32.041Z,4.15
2022-10-16T04:21:59.317Z,3.65
2022-10-16T04:24:29.034Z,17.50
2022-10-16T04:26:56.321Z,13.13
2022-10-16T04:29:23.580Z,7.95
2022-10-16T04:31:53.119Z,11.40
2022-10-16T04:34:20.354Z,13.00
2022-10-16T04:36:50.766Z,11.27
2022-10-16T04:39:18.091Z,7.88
2022-10-16T04:41:45.380Z,6.85
2022-10-16T04:44:12.646Z,5.72
2022-10-16T04:46:39.918Z,6.68
2022-10-16T04:49:07.205Z,9.80
2022-10-16T04:51:34.578Z,11.98
2022-10-16T04:54:01.805Z,7.90
2022-10-16T04:56:31.888Z,15.20
2022-10-16T04:58:59.289Z,4.47
2022-10-16T05:01:26.605Z,5.75
2022-10-16T05:04:03.322Z,4.13
2022-10-16T05:06:33.259Z,6.07
2022-10-16T05:09:02.983Z,13.20
2022-10-16T05:11:30.261Z,15.13
2022-10-16T05:14:00.327Z,10.93
2022-10-16T05:16:27.720Z,10.63
2022-10-16T05:19:00.033Z,7.80
2022-10-16T05:21:39.716Z,11.77
2022-10-16T05:24:10.253Z,7.47
2022-10-16T05:26:37.533Z,7.93
2022-10-16T05:29:09.180Z,9.70
2022-10-16T05:34:06.368Z,9.75
2022-10-16T05:36:33.689Z,8.25
2022-10-16T05:39:00.923Z,11.88
2022-10-16T05:41:28.256Z,10.63
2022-10-16T05:43:55.631Z,14.45
2022-10-16T05:46:22.939Z,17.58
2022-10-16T05:48:54.231Z,8.10
2022-10-16T05:51:21.575Z,9.23
2022-10-16T05:53:48.849Z,17.25
2022-10-16T05:56:16.749Z,16.23
2022-10-16T05:58:45.557Z,11.10
2022-10-16T06:01:18.233Z,14.82
2022-10-16T06:03:46.107Z,19.08
2022-10-16T06:06:24.106Z,10.25
2022-10-16T06:08:58.852Z,4.75
2022-10-16T06:11:29.093Z,6.15
2022-10-16T06:14:02.748Z,7.85
2022-10-16T06:16:30.371Z,5.57
2022-10-16T06:18:57.715Z,6.70
2022-10-16T06:21:26.897Z,5.68
2022-10-16T06:23:57.172Z,11.73
2022-10-16T06:26:29.237Z,16.42
2022-10-16T06:28:57.674Z,2.60
2022-10-16T06:31:28.620Z,9.48
2022-10-16T06:33:57.133Z,13.55
2022-10-16T06:36:25.684Z,5.40
2022-10-16T06:38:55.567Z,44.22
2022-10-16T06:41:24.064Z,21.20
2022-10-16T06:43:53.234Z,10.52
2022-10-16T06:46:23.943Z,7.47
2022-10-16T06:48:51.468Z,2.80
2022-10-16T06:51:23.409Z,4.18
2022-10-16T06:54:04.001Z,4.68
2022-10-16T06:56:34.709Z,4.22
2022-10-16T06:59:02.751Z,8.70
2022-10-16T07:01:30.622Z,13.57
2022-10-16T07:03:58.338Z,9.85
2022-10-16T07:06:27.655Z,2.65
2022-10-16T07:08:55.109Z,3.78
2022-10-16T07:11:24.605Z,4.28
2022-10-16T07:13:55.065Z,3.72
2022-10-16T07:16:28.769Z,3.85
2022-10-16T07:19:01.024Z,15.27
2022-10-16T07:21:36.886Z,5.85
2022-10-16T07:24:06.463Z,6.13
2022-10-16T07:26:36.033Z,11.10
2022-10-16T07:29:04.656Z,11.80
2022-10-16T07:31:34.553Z,10.07
2022-10-16T07:34:02.102Z,6.43
2022-10-16T07:36:31.701Z,12.02
2022-10-16T07:39:01.422Z,7.60
2022-10-16T07:41:33.836Z,4.75
2022-10-16T07:44:01.619Z,5.47
2022-10-16T07:46:29.648Z,6.97
2022-10-16T07:48:56.923Z,6.28
2022-10-16T07:51:25.925Z,4.40
2022-10-16T07:53:55.866Z,4.10
2022-10-16T07:56:23.820Z,11.40
2022-10-16T07:58:54.297Z,12.05
2022-10-16T08:01:26.657Z,7.80
2022-10-16T08:03:56.689Z,10.90
2022-10-16T08:06:27.665Z,10.57
2022-10-16T08:09:00.966Z,6.43
2022-10-16T08:11:30.741Z,4.50
2022-10-16T08:14:00.384Z,4.90
2022-10-16T08:16:27.609Z,5.07
2022-10-16T08:18:57.266Z,4.55
2022-10-16T08:21:24.918Z,4.10
2022-10-16T08:23:58.064Z,3.90
2022-10-16T08:26:27.333Z,4.35
2022-10-16T08:28:55.266Z,4.30
2022-10-16T08:31:23.336Z,4.05
2022-10-16T08:33:54.228Z,4.00
2022-10-16T08:36:21.761Z,4.20
2022-10-16T08:38:50.907Z,4.90
2022-10-16T08:41:41.635Z,4.07
2022-10-16T08:44:57.226Z,4.35
2022-10-16T08:47:36.839Z,5.32
2022-10-16T08:50:12.540Z,4.78
2022-10-16T08:52:42.472Z,12.18
2022-10-16T08:55:33.424Z,6.47
2022-10-16T08:58:01.626Z,5.23
2022-10-16T09:00:29.684Z,6.13
2022-10-16T09:03:18.913Z,5.75
2022-10-16T09:06:06.393Z,5.25
2022-10-16T09:08:42.053Z,7.13
2022-10-16T09:11:40.677Z,6.70
2022-10-16T09:14:37.478Z,8.45
2022-10-16T09:17:16.101Z,6.28
2022-10-16T09:19:55.796Z,5.80
2022-10-16T09:22:30.124Z,6.38
2022-10-16T09:25:11.079Z,6.05
2022-10-16T09:27:41.105Z,5.10
2022-10-16T09:30:20.668Z,5.15
2022-10-16T09:32:52.734Z,6.15
2022-10-16T09:35:27.667Z,6.13
2022-10-16T09:37:55.996Z,6.50
2022-10-16T09:40:32.645Z,10.05
2022-10-16T09:43:35.161Z,15.30
2022-10-16T09:46:06.093Z,8.30
2022-10-16T09:48:45.166Z,6.68
2022-10-16T09:51:25.204Z,9.60
2022-10-16T09:54:03.038Z,4.57
2022-10-16T09:56:39.705Z,13.13
2022-10-16T09:59:14.255Z,9.73
2022-10-16T10:01:51.811Z,5.43
2022-10-16T10:04:24.074Z,6.15
2022-10-16T10:06:59.169Z,4.78
2022-10-16T10:09:32.398Z,4.63
2022-10-16T10:12:06.323Z,5.47
2022-10-16T10:14:39.547Z,5.15
2022-10-16T10:17:08.934Z,4.97
2022-10-16T10:19:40.086Z,4.60
2022-10-16T10:22:28.061Z,5.18
2022-10-16T10:25:04.650Z,5.13
2022-10-16T10:27:40.467Z,3.58
2022-10-16T10:30:13.358Z,3.80
2022-10-16T10:32:48.591Z,4.97
2022-10-16T10:35:28.386Z,6.25
2022-10-16T10:38:04.620Z,4.35
2022-10-16T10:40:34.755Z,4.63
2022-10-16T10:43:19.420Z,4.13
2022-10-16T10:45:48.685Z,4.18
2022-10-16T10:48:45.099Z,6.75
2022-10-16T10:52:00.164Z,3.67
2022-10-16T10:54:49.536Z,3.55
2022-10-16T10:57:27.264Z,3.40
2022-10-16T11:00:00.889Z,4.35
2022-10-16T11:03:00.752Z,3.22
2022-10-16T11:05:42.651Z,3.78
2022-10-16T11:08:24.504Z,2.90
2022-10-16T11:10:59.725Z,2.28
2022-10-16T11:13:38.632Z,2.63
2022-10-16T11:16:41.700Z,2.70
2022-10-16T11:19:30.495Z,3.70
2022-10-16T11:22:20.911Z,8.40
2022-10-16T11:25:14.599Z,3.08
2022-10-16T11:27:56.699Z,3.00
2022-10-16T11:30:27.218Z,2.00
2022-10-16T11:33:20.506Z,4.60
2022-10-16T11:36:01.655Z,2.08
2022-10-16T11:38:46.774Z,2.03
2022-10-16T11:41:38.772Z,3.25
2022-10-16T11:44:27.780Z,5.13
2022-10-16T11:47:46.403Z,2.20
2022-10-16T11:50:39.728Z,2.33
2022-10-16T11:53:51.388Z,2.17
2022-10-16T11:56:25.250Z,2.60
2022-10-16T11:59:01.543Z,3.05
2022-10-16T12:01:57.753Z,1.90
2022-10-16T12:04:46.241Z,2.95
2022-10-16T12:07:19.411Z,4.35
2022-10-16T12:09:46.697Z,3.35
2022-10-16T12:12:36.972Z,2.90
2022-10-16T12:15:29.770Z,2.10
2022-10-16T12:18:25.721Z,1.63
2022-10-16T12:21:08.743Z,2.00
2022-10-16T12:23:48.550Z,1.58
2022-10-16T12:26:28.846Z,2.65
2022-10-16T12:28:57.214Z,3.65
2022-10-16T12:31:25.261Z,1.92
2022-10-16T12:34:04.798Z,1.90
2022-10-16T12:36:36.266Z,1.48
2022-10-16T12:41:40.803Z,1.85
2022-10-16T12:44:27.342Z,3.97
2022-10-16T12:46:54.685Z,4.55
2022-10-16T12:49:34.200Z,3.28
2022-10-16T12:52:01.488Z,2.20
2022-10-16T12:54:31.288Z,1.65
2022-10-16T12:57:26.827Z,2.10
2022-10-16T12:59:57.162Z,1.48
2022-10-16T13:02:56.051Z,2.70
2022-10-16T13:05:38.072Z,1.60
2022-10-16T13:08:26.979Z,1.88
2022-10-16T13:11:00.622Z,1.85
2022-10-16T13:13:49.201Z,2.50
2022-10-16T13:16:19.566Z,1.83
2022-10-16T13:19:04.763Z,3.35
2022-10-16T13:21:56.545Z,1.80
2022-10-16T13:25:02.605Z,1.85
2022-10-16T13:27:53.388Z,2.08
2022-10-16T13:30:30.831Z,1.67
2022-10-16T13:33:21.988Z,1.40
2022-10-16T13:35:52.273Z,1.90
2022-10-16T13:38:28.277Z,2.08
2022-10-16T13:41:07.047Z,2.25
2022-10-16T13:43:50.738Z,2.17
2022-10-16T13:46:22.897Z,1.40
2022-10-16T13:48:59.991Z,3.42
2022-10-16T13:51:27.990Z,1.40
2022-10-16T13:53:58.133Z,2.47
2022-10-16T13:56:33.422Z,1.50
2022-10-16T13:59:22.932Z,2.30
2022-10-16T14:01:52.730Z,1.63
2022-10-16T14:04:20.034Z,1.88
2022-10-16T14:06:53.075Z,2.17
2022-10-16T14:09:28.131Z,1.90
2022-10-16T14:12:11.091Z,1.50
2022-10-16T14:14:50.333Z,3.03
2022-10-16T14:17:19.674Z,3.42
2022-10-16T14:19:57.776Z,2.30
2022-10-16T14:22:42.736Z,1.60
2022-10-16T14:25:24.828Z,1.73
2022-10-16T14:28:24.331Z,2.88
2022-10-16T14:30:58.795Z,2.47
2022-10-16T14:33:37.661Z,1.98
2022-10-16T14:36:14.618Z,1.83
2022-10-16T14:38:58.382Z,1.90
2022-10-16T14:41:25.842Z,2.78
2022-10-16T14:43:57.694Z,2.00
2022-10-16T14:46:35.931Z,3.10
2022-10-16T14:49:11.968Z,2.60
2022-10-16T14:51:45.769Z,2.38
2022-10-16T14:54:16.517Z,2.33
2022-10-16T14:56:58.483Z,2.50
2022-10-16T14:59:45.140Z,4.20
2022-10-16T15:02:32.499Z,3.25
2022-10-16T15:05:12.358Z,3.33
2022-10-16T15:07:42.030Z,1.60
2022-10-16T15:10:09.593Z,2.22
2022-10-16T15:12:36.976Z,4.03
2022-10-16T15:15:26.875Z,2.10
2022-10-16T15:17:59.484Z,1.77
2022-10-16T15:20:28.912Z,2.05
2022-10-16T15:22:56.204Z,3.00
2022-10-16T15:25:48.859Z,3.13
2022-10-16T15:28:19.748Z,1.63
2022-10-16T15:30:49.825Z,2.10
2022-10-16T15:33:20.068Z,2.00
2022-10-16T15:35:49.138Z,1.75
2022-10-16T15:38:20.455Z,3.53
2022-10-16T15:40:49.342Z,2.08
2022-10-16T15:43:16.756Z,1.88
2022-10-16T15:45:46.492Z,1.70
2022-10-16T15:48:14.710Z,1.60
2022-10-16T15:53:13.896Z,3.58
2022-10-16T15:55:41.173Z,3.10
2022-10-16T15:58:10.701Z,1.88
2022-10-16T16:00:38.633Z,5.97
2022-10-16T16:03:05.995Z,2.42
2022-10-16T16:05:34.367Z,2.38
2022-10-16T16:08:01.643Z,2.30
2022-10-16T16:10:28.883Z,2.45
2022-10-16T16:12:56.217Z,2.33
2022-10-16T16:15:25.135Z,3.45
2022-10-16T16:17:52.404Z,3.03
2022-10-16T16:20:19.780Z,3.13
2022-10-16T16:22:49.330Z,3.53
2022-10-16T16:25:16.583Z,3.95
2022-10-16T16:27:43.974Z,4.97
2022-10-16T16:30:18.420Z,3.95
2022-10-16T16:32:47.720Z,3.53
2022-10-16T16:35:17.484Z,3.53
2022-10-16T16:37:47.666Z,4.57
2022-10-16T16:40:15.057Z,5.60
2022-10-16T16:42:42.301Z,3.50
2022-10-16T16:45:12.783Z,4.75
2022-10-16T16:47:40.033Z,4.55
2022-10-16T16:50:08.065Z,4.70
2022-10-16T16:52:38.026Z,3.60
2022-10-16T16:55:05.699Z,3.50
2022-10-16T16:57:33.019Z,4.85
2022-10-16T17:00:02.547Z,5.50
2022-10-16T17:02:29.810Z,4.57
2022-10-16T17:04:58.443Z,4.40
2022-10-16T17:07:27.956Z,4.78
2022-10-16T17:09:55.395Z,4.70
2022-10-16T17:12:22.713Z,3.78
2022-10-16T17:14:53.713Z,4.22
2022-10-16T17:17:21.102Z,7.85
2022-10-16T17:19:51.306Z,4.82
2022-10-16T17:22:19.943Z,6.80
2022-10-16T17:24:52.189Z,5.90
2022-10-16T17:27:19.773Z,7.07
2022-10-16T17:29:51.316Z,7.15
2022-10-16T17:34:50.296Z,7.93
2022-10-16T17:37:20.265Z,6.93
2022-10-16T17:39:50.844Z,11.43
2022-10-16T17:42:18.174Z,5.57
2022-10-16T17:44:47.690Z,5.65
2022-10-16T17:47:15.047Z,4.85
2022-10-16T17:49:44.772Z,6.85
2022-10-16T17:52:12.272Z,4.57
2022-10-16T17:54:40.819Z,3.00
2022-10-16T17:57:10.377Z,3.25
2022-10-16T17:59:40.240Z,3.25
2022-10-16T18:02:09.228Z,5.72
2022-10-16T18:04:36.916Z,3.58
2022-10-16T18:07:06.798Z,5.10
2022-10-16T18:09:34.208Z,5.97
2022-10-16T18:12:01.643Z,8.15
2022-10-16T18:14:35.433Z,5.50
2022-10-16T18:17:02.685Z,4.38
2022-10-16T18:19:32.331Z,4.88
2022-10-16T18:21:59.732Z,5.00
2022-10-16T18:24:27.558Z,3.92
2022-10-16T18:26:57.514Z,4.40
2022-10-16T18:29:26.560Z,6.82
2022-10-16T18:31:54.628Z,5.20
2022-10-16T18:34:26.838Z,4.80
2022-10-16T18:36:55.217Z,5.75
2022-10-16T18:39:24.843Z,4.18
2022-10-16T18:41:55.188Z,5.13
2022-10-16T18:44:22.565Z,7.03
2022-10-16T18:46:51.117Z,6.03
2022-10-16T18:49:18.715Z,5.20
2022-10-16T18:51:48.649Z,5.57
2022-10-16T18:54:16.097Z,5.32
2022-10-16T18:56:43.374Z,5.65
2022-10-16T18:59:10.818Z,5.45
2022-10-16T19:01:40.723Z,5.43
2022-10-16T19:04:11.057Z,5.57
2022-10-16T19:06:42.825Z,6.00
2022-10-16T19:09:13.962Z,5.55
2022-10-16T19:11:42.183Z,8.52
2022-10-16T19:14:13.528Z,5.22
2022-10-16T19:16:43.047Z,5.68
2022-10-16T19:19:16.035Z,5.57
2022-10-16T19:21:43.697Z,5.25
2022-10-16T19:24:14.521Z,8.00
2022-10-16T19:26:42.623Z,7.70
2022-10-16T19:29:11.236Z,6.38
2022-10-16T19:31:38.530Z,8.80
2022-10-16T19:34:09.779Z,8.45
2022-10-16T19:36:39.082Z,8.48
2022-10-16T19:39:12.838Z,7.57
2022-10-16T19:41:40.690Z,9.07
2022-10-16T19:44:12.472Z,8.27
2022-10-16T19:46:39.707Z,9.25
2022-10-16T19:49:10.071Z,11.48
2022-10-16T19:51:40.672Z,13.13
2022-10-16T19:54:12.415Z,13.37
2022-10-16T19:56:42.650Z,13.93
2022-10-16T19:59:13.452Z,15.32
2022-10-16T20:01:43.621Z,15.50
2022-10-16T20:04:14.394Z,20.73
2022-10-16T20:06:41.778Z,19.77
2022-10-16T20:09:09.396Z,22.88
2022-10-16T20:11:37.285Z,24.67
2022-10-16T20:14:08.077Z,23.80
2022-10-16T20:16:35.623Z,23.27
2022-10-16T20:19:05.844Z,27.52
2022-10-16T20:21:35.012Z,27.80
2022-10-16T20:24:05.109Z,28.05
2022-10-16T20:26:33.332Z,26.67
2022-10-16T20:29:00.726Z,26.88
2022-10-16T20:31:30.463Z,27.15
2022-10-16T20:34:01.957Z,26.48
2022-10-16T20:38:57.993Z,24.75
2022-10-16T20:41:29.803Z,28.02
2022-10-16T20:43:57.100Z,27.75
2022-10-16T20:46:28.907Z,24.92
2022-10-16T20:49:05.938Z,27.50
2022-10-16T20:51:49.852Z,29.73
2022-10-16T20:54:17.324Z,25.48
2022-10-16T20:56:46.939Z,24.65
2022-10-16T20:59:14.454Z,25.42
2022-10-16T21:01:41.892Z,27.85
2022-10-16T21:04:09.944Z,23.48
2022-10-16T21:06:39.171Z,27.80
2022-10-16T21:09:07.876Z,24.75
2022-10-16T21:11:37.264Z,24.13
2022-10-16T21:14:06.527Z,27.25
2022-10-16T21:16:36.809Z,24.35
2022-10-16T21:19:04.987Z,26.75
2022-10-16T21:21:39.284Z,23.80
2022-10-16T21:24:10.917Z,20.70
2022-10-16T21:26:43.460Z,21.80
2022-10-16T21:29:11.705Z,21.63
2022-10-16T21:31:39.413Z,20.25
2022-10-16T21:34:09.183Z,19.17
2022-10-16T21:36:40.920Z,18.85
2022-10-16T21:39:11.458Z,21.83
2022-10-16T21:41:39.387Z,20.33
2022-10-16T21:44:07.022Z,18.63
2022-10-16T21:46:37.045Z,20.83
2022-10-16T21:49:10.122Z,20.92
2022-10-16T21:51:40.355Z,22.42
2022-10-16T21:54:10.450Z,21.50
2022-10-16T21:56:38.666Z,22.20
2022-10-16T21:59:06.608Z,22.00
2022-10-16T22:01:34.151Z,22.67
2022-10-16T22:04:01.492Z,23.58
2022-10-16T22:06:31.533Z,21.20
2022-10-16T22:09:04.809Z,21.13
2022-10-16T22:11:37.177Z,21.58
2022-10-16T22:14:14.032Z,24.38
2022-10-16T22:16:42.258Z,20.55
2022-10-16T22:19:11.073Z,22.33
2022-10-16T22:21:42.294Z,21.27
2022-10-16T22:24:10.007Z,23.63
2022-10-16T22:26:38.697Z,30.58
2022-10-16T22:29:06.727Z,26.27
2022-10-16T22:31:34.972Z,31.73
2022-10-16T22:34:07.936Z,24.52
2022-10-16T22:36:37.703Z,26.60
2022-10-16T22:39:05.612Z,32.85
2022-10-16T22:41:32.949Z,28.42
2022-10-16T22:44:02.666Z,27.83
2022-10-16T22:46:31.331Z,26.83
2022-10-16T22:49:01.094Z,28.13
2022-10-16T22:51:35.680Z,26.92
2022-10-16T22:54:02.967Z,28.42
2022-10-16T22:56:32.595Z,28.80
2022-10-16T22:58:59.833Z,29.00
2022-10-16T23:01:36.916Z,29.73
2022-10-16T23:04:07.187Z,30.13
2022-10-16T23:06:35.386Z,33.28
2022-10-16T23:09:04.980Z,28.38
2022-10-16T23:11:34.745Z,29.77
2022-10-16T23:14:02.063Z,30.50
2022-10-16T23:16:32.265Z,26.85
2022-10-16T23:18:59.753Z,29.35
2022-10-16T23:21:27.365Z,30.27
2022-10-16T23:23:55.313Z,28.92
2022-10-16T23:26:25.435Z,26.42
2022-10-16T23:28:55.196Z,30.83
2022-10-16T23:31:22.583Z,31.02
2022-10-16T23:33:50.212Z,29.50
2022-10-16T23:36:19.827Z,30.50
2022-10-16T23:38:48.483Z,26.67
2022-10-16T23:41:16.802Z,28.13
2022-10-16T23:43:44.149Z,26.80
2022-10-16T23:46:12.758Z,28.80
2022-10-16T23:48:40.589Z,28.33
2022-10-16T23:51:11.245Z,45.53
2022-10-16T23:53:40.909Z,30.47
2022-10-16T23:56:08.718Z,37.65
2022-10-16T23:58:36.717Z,33.22
